Time;durP1;ratioP1;P1;durP2;ratioP2;P2;SDS_P1;SDS_P2;PMS_P1;PMS_P2;Temp;Humidity;BMP_temperature;BMP_pressure;BME280_temperature;BME280_humidity;BME280_pressure;Samples;Min_cycle;Max_cycle;Signal;HPM_P1;HPM_P2
2023/11/10 00:01:48;;;;;;;6.53;3.63;;;13.10;66.40;;;;;;6121020;29;20044;-74
2023/11/10 00:04:51;;;;;;;9.50;3.78;;;13.10;66.30;;;;;;6123888;29;20090;-73
2023/11/10 00:07:54;;;;;;;7.47;3.65;;;13.10;66.20;;;;;;6122106;29;20119;-74
2023/11/10 00:10:58;;;;;;;4.72;2.97;;;13.10;66.00;;;;;;6121557;29;20481;-73
2023/11/10 00:14:00;;;;;;;6.68;3.70;;;13.00;66.10;;;;;;6121785;29;20041;-74
2023/11/10 00:17:02;;;;;;;9.73;2.45;;;13.00;66.10;;;;;;6121796;29;20171;-74
2023/11/10 00:20:04;;;;;;;4.32;1.70;;;13.00;66.10;;;;;;6121540;29;20034;-73
2023/11/10 00:23:08;;;;;;;4.25;1.73;;;13.00;65.90;;;;;;6121861;29;20039;-73
2023/11/10 00:26:22;;;;;;;2.17;1.50;;;13.00;65.90;;;;;;6121593;29;20126;-73
2023/11/10 00:29:24;;;;;;;4.18;2.40;;;13.00;65.80;;;;;;6104839;29;20387;-74
2023/11/10 00:32:27;;;;;;;8.93;3.10;;;13.10;65.70;;;;;;6121647;29;20040;-73
2023/11/10 00:35:30;;;;;;;5.13;2.03;;;13.10;65.40;;;;;;6121798;29;20031;-73
2023/11/10 00:38:34;;;;;;;4.05;2.33;;;13.20;65.30;;;;;;6129845;29;20491;-73
2023/11/10 00:41:38;;;;;;;3.38;1.90;;;13.20;65.20;;;;;;6146483;29;20078;-74
2023/11/10 00:44:39;;;;;;;6.88;1.80;;;13.20;65.00;;;;;;6107130;29;20538;-74
2023/11/10 00:47:44;;;;;;;4.18;1.77;;;13.20;64.90;;;;;;6121207;29;20050;-74
2023/11/10 00:50:46;;;;;;;2.83;1.77;;;13.30;64.90;;;;;;6128000;29;20122;-74
2023/11/10 00:54:30;;;;;;;5.45;2.50;;;13.30;64.90;;;;;;6114180;29;20119;-72
2023/11/10 00:57:35;;;;;;;3.72;1.42;;;13.20;64.90;;;;;;6122521;29;20110;-73
2023/11/10 01:00:37;;;;;;;4.03;1.80;;;13.20;64.90;;;;;;6119304;29;20051;-74
2023/11/10 01:03:42;;;;;;;4.95;2.22;;;13.20;65.00;;;;;;6119218;29;20118;-73
2023/11/10 01:06:45;;;;;;;4.53;2.33;;;13.30;65.00;;;;;;6117921;29;20073;-73
2023/11/10 01:09:48;;;;;;;3.55;1.60;;;13.30;65.00;;;;;;6117664;29;20037;-73
2023/11/10 01:12:52;;;;;;;4.38;2.15;;;13.30;65.80;;;;;;6101865;29;20047;-73
2023/11/10 01:15:54;;;;;;;1.92;1.55;;;13.30;65.00;;;;;;6101894;29;20095;-73
2023/11/10 01:18:56;;;;;;;5.88;3.28;;;13.40;65.00;;;;;;6102146;29;20098;-74
2023/11/10 01:21:58;;;;;;;7.13;3.78;;;13.40;65.00;;;;;;6101934;29;20131;-74
2023/11/10 01:25:00;;;;;;;5.30;3.55;;;13.40;65.00;;;;;;6085982;29;20110;-73
2023/11/10 01:28:04;;;;;;;9.55;4.03;;;13.30;65.10;;;;;;6087341;29;20043;-73
2023/11/10 01:31:05;;;;;;;9.93;4.63;;;13.30;65.20;;;;;;6120672;29;20047;-73
2023/11/10 01:34:07;;;;;;;8.77;4.97;;;13.20;65.20;;;;;;6120961;29;20070;-73
2023/11/10 01:37:10;;;;;;;11.27;5.05;;;13.20;65.50;;;;;;6120228;29;20521;-73
2023/11/10 01:40:14;;;;;;;8.85;4.03;;;13.10;65.70;;;;;;6119757;29;20479;-74
2023/11/10 01:43:16;;;;;;;7.75;4.28;;;13.10;65.80;;;;;;6120513;29;20183;-73
2023/11/10 01:46:46;;;;;;;9.77;4.35;;;13.10;65.80;;;;;;6124508;29;20046;-73
2023/11/10 01:49:48;;;;;;;10.23;4.05;;;13.10;65.90;;;;;;6137434;29;20027;-73
2023/11/10 01:52:53;;;;;;;9.95;3.20;;;13.00;65.80;;;;;;6141794;28;20031;-73
2023/11/10 01:55:54;;;;;;;5.97;3.38;;;12.90;65.80;;;;;;6124386;29;20039;-73
2023/11/10 01:58:56;;;;;;;5.95;3.05;;;12.80;66.00;;;;;;6123856;29;20031;-74
2023/11/10 02:01:58;;;;;;;8.95;3.67;;;12.80;66.40;;;;;;6124653;29;20023;-72
2023/11/10 02:05:06;;;;;;;5.00;3.13;;;12.70;66.70;;;;;;6124940;29;20047;-73
2023/11/10 02:08:09;;;;;;;5.93;3.08;;;12.70;66.90;;;;;;6123460;29;20039;-74
2023/11/10 02:11:11;;;;;;;5.90;3.25;;;12.70;67.00;;;;;;6107288;29;20052;-72
2023/11/10 02:14:15;;;;;;;6.00;3.22;;;12.70;66.90;;;;;;6124544;29;20063;-75
2023/11/10 02:17:18;;;;;;;6.53;3.63;;;12.80;67.00;;;;;;6106812;29;20051;-74
2023/11/10 02:20:21;;;;;;;7.55;3.47;;;12.70;66.90;;;;;;6124499;29;20051;-73
2023/11/10 02:23:26;;;;;;;6.03;3.55;;;12.70;67.00;;;;;;6108068;29;20043;-74
2023/11/10 02:26:28;;;;;;;6.72;3.30;;;12.80;67.10;;;;;;6091849;29;20357;-72
2023/11/10 02:29:32;;;;;;;7.38;3.33;;;12.70;67.10;;;;;;6107676;29;20063;-73
2023/11/10 02:32:36;;;;;;;7.03;3.55;;;12.80;67.20;;;;;;6123941;29;20364;-73
2023/11/10 02:35:38;;;;;;;7.47;3.83;;;12.70;67.30;;;;;;6106892;29;20074;-73
2023/11/10 02:38:43;;;;;;;7.75;2.97;;;12.80;67.40;;;;;;6124000;29;20031;-74
2023/11/10 02:41:45;;;;;;;7.82;4.10;;;12.80;67.40;;;;;;6090934;29;20050;-73
2023/11/10 02:44:47;;;;;;;7.60;3.55;;;12.70;67.30;;;;;;6106958;29;20031;-74
2023/11/10 02:47:48;;;;;;;4.70;2.90;;;12.80;67.40;;;;;;6123566;29;20035;-73
2023/11/10 02:50:50;;;;;;;7.93;3.83;;;12.80;67.30;;;;;;6123274;29;20043;-73
2023/11/10 02:53:52;;;;;;;7.53;3.42;;;12.80;67.30;;;;;;6091300;29;20380;-73
2023/11/10 02:56:52;;;;;;;6.32;3.50;;;12.80;67.50;;;;;;6122317;29;20389;-73
2023/11/10 02:59:57;;;;;;;7.35;3.08;;;12.70;68.40;;;;;;6107008;29;20071;-72
2023/11/10 03:03:03;;;;;;;6.60;3.53;;;12.70;67.70;;;;;;6122575;29;20032;-73
2023/11/10 03:06:07;;;;;;;6.30;3.78;;;12.70;67.70;;;;;;6122520;29;20046;-74
2023/11/10 03:09:08;;;;;;;8.43;4.13;;;12.70;67.60;;;;;;6124144;29;20042;-73
2023/11/10 03:12:09;;;;;;;6.15;3.80;;;12.70;67.70;;;;;;6122307;29;20269;-74
2023/11/10 03:15:13;;;;;;;5.85;4.00;;;12.70;67.80;;;;;;6123800;29;20028;-73
2023/11/10 03:18:14;;;;;;;5.72;3.58;;;12.70;67.90;;;;;;6123278;29;20405;-74
2023/11/10 03:21:20;;;;;;;6.50;4.03;;;12.70;67.80;;;;;;6106137;29;20027;-72
2023/11/10 03:24:40;;;;;;;5.55;3.40;;;12.80;67.90;;;;;;6120158;29;20027;-73
2023/11/10 03:27:43;;;;;;;6.57;4.00;;;12.80;67.90;;;;;;6122677;29;20063;-73
2023/11/10 03:30:45;;;;;;;9.55;3.90;;;12.80;67.90;;;;;;6122424;29;20038;-75
2023/11/10 03:33:48;;;;;;;6.72;3.80;;;12.80;67.90;;;;;;6123196;29;20045;-74
2023/11/10 03:36:50;;;;;;;9.93;3.92;;;12.80;67.90;;;;;;6123127;29;20028;-73
2023/11/10 03:39:53;;;;;;;9.07;3.67;;;12.80;68.00;;;;;;6122291;29;20384;-73
2023/11/10 03:42:56;;;;;;;7.40;3.88;;;12.80;68.00;;;;;;6123016;29;20032;-73
2023/11/10 03:45:59;;;;;;;6.72;3.53;;;12.80;68.10;;;;;;6122698;29;20094;-73
2023/11/10 03:49:02;;;;;;;9.48;4.25;;;12.80;68.30;;;;;;6122448;29;20035;-73
2023/11/10 03:52:06;;;;;;;9.48;4.50;;;12.80;68.40;;;;;;6105328;29;20133;-73
2023/11/10 03:55:10;;;;;;;7.30;3.83;;;12.80;68.60;;;;;;6123056;29;20115;-74
2023/11/10 03:58:11;;;;;;;8.38;4.13;;;12.80;68.70;;;;;;6125013;29;20048;-73
2023/11/10 04:01:13;;;;;;;8.45;4.00;;;12.80;68.80;;;;;;6107355;29;20031;-73
2023/11/10 04:04:17;;;;;;;5.45;2.97;;;12.80;68.80;;;;;;6106275;29;20032;-73
2023/11/10 04:07:22;;;;;;;7.13;3.40;;;12.80;68.90;;;;;;6122656;29;20435;-72
2023/11/10 04:10:26;;;;;;;7.07;3.75;;;12.80;69.00;;;;;;6104401;29;20047;-73
2023/11/10 04:13:27;;;;;;;7.45;3.83;;;12.80;69.00;;;;;;6104897;29;20102;-73
2023/11/10 04:16:28;;;;;;;7.38;3.72;;;12.70;69.20;;;;;;6105245;29;20035;-73
2023/11/10 04:19:33;;;;;;;6.78;3.85;;;12.80;69.50;;;;;;6104905;29;20039;-73
2023/11/10 04:22:40;;;;;;;7.35;3.58;;;12.70;69.40;;;;;;6121958;29;20035;-73
2023/11/10 04:25:43;;;;;;;5.07;3.88;;;12.70;69.50;;;;;;6105069;29;20043;-72
2023/11/10 04:28:50;;;;;;;6.63;3.90;;;12.80;69.50;;;;;;6090309;29;20194;-74
2023/11/10 04:31:53;;;;;;;6.88;3.50;;;12.80;69.60;;;;;;6121764;29;20079;-73
2023/11/10 04:34:57;;;;;;;7.65;3.63;;;12.80;69.50;;;;;;6121726;29;20067;-73
2023/11/10 04:38:01;;;;;;;7.85;3.38;;;12.80;69.60;;;;;;6121454;29;20075;-74
2023/11/10 04:41:08;;;;;;;7.78;3.55;;;12.80;69.80;;;;;;6121088;29;20703;-74
2023/11/10 04:44:13;;;;;;;6.63;4.18;;;12.80;69.90;;;;;;6121578;29;20166;-73
2023/11/10 04:47:16;;;;;;;5.93;2.97;;;12.80;69.90;;;;;;6121580;29;20055;-72
2023/11/10 04:50:22;;;;;;;7.15;4.00;;;12.80;70.00;;;;;;6121392;29;20055;-73
2023/11/10 04:53:24;;;;;;;6.32;3.38;;;12.90;70.10;;;;;;6121816;29;20019;-73
2023/11/10 04:56:27;;;;;;;6.80;3.67;;;12.90;70.00;;;;;;6121361;29;20039;-73
2023/11/10 04:59:30;;;;;;;5.53;3.67;;;12.90;69.90;;;;;;6121489;29;20031;-73
2023/11/10 05:02:33;;;;;;;5.10;3.20;;;12.90;69.80;;;;;;6121211;29;20031;-74
2023/11/10 05:05:36;;;;;;;7.88;3.60;;;12.90;69.80;;;;;;6120380;29;20039;-73
2023/11/10 05:08:39;;;;;;;8.05;4.30;;;13.00;69.80;;;;;;6121470;29;20031;-74
2023/11/10 05:11:43;;;;;;;7.25;3.95;;;13.00;69.80;;;;;;6121376;29;20043;-73
2023/11/10 05:14:46;;;;;;;4.38;2.80;;;13.00;69.70;;;;;;6121611;29;20147;-73
2023/11/10 05:17:49;;;;;;;9.02;3.58;;;13.00;69.80;;;;;;6121160;29;20040;-74
2023/11/10 05:20:52;;;;;;;11.93;3.72;;;13.00;69.90;;;;;;6117931;29;20055;-74
2023/11/10 05:23:55;;;;;;;4.53;2.53;;;12.90;70.00;;;;;;6120959;29;20473;-74
2023/11/10 05:26:59;;;;;;;4.03;2.28;;;12.90;70.10;;;;;;6120887;29;20050;-73
2023/11/10 05:30:07;;;;;;;3.58;2.17;;;12.80;70.30;;;;;;6103615;29;20053;-73
2023/11/10 05:33:09;;;;;;;3.08;1.90;;;12.80;70.60;;;;;;6121333;29;20047;-74
2023/11/10 05:36:20;;;;;;;4.50;2.08;;;12.80;70.70;;;;;;6121276;29;20461;-73
2023/11/10 05:39:24;;;;;;;8.30;1.85;;;12.80;70.80;;;;;;6120317;29;20035;-72
2023/11/10 05:42:28;;;;;;;1.40;1.25;;;12.80;70.90;;;;;;6121285;29;20031;-73
2023/11/10 05:45:33;;;;;;;1.52;1.40;;;12.80;71.10;;;;;;6121039;29;20067;-73
2023/11/10 05:48:35;;;;;;;2.30;1.50;;;12.70;71.10;;;;;;6104198;29;20058;-72
2023/11/10 05:51:39;;;;;;;1.80;1.13;;;12.80;71.30;;;;;;6120354;29;20409;-74
2023/11/10 05:54:43;;;;;;;3.17;1.30;;;12.80;71.40;;;;;;6121020;29;20039;-74
2023/11/10 05:57:48;;;;;;;1.38;0.88;;;12.80;71.60;;;;;;6120880;29;20109;-73
2023/11/10 06:00:51;;;;;;;4.32;0.95;;;12.70;71.60;;;;;;6120670;29;20032;-74
2023/11/10 06:03:52;;;;;;;4.95;0.85;;;12.70;71.70;;;;;;6103724;29;20062;-74
2023/11/10 06:06:53;;;;;;;1.60;0.90;;;12.70;71.70;;;;;;6104017;29;20205;-73
2023/11/10 06:09:57;;;;;;;1.27;0.90;;;12.70;71.80;;;;;;6103824;29;20043;-72
2023/11/10 06:12:59;;;;;;;4.40;2.30;;;12.80;71.90;;;;;;6088036;29;20098;-73
2023/11/10 06:16:03;;;;;;;3.53;1.95;;;12.80;72.00;;;;;;6103574;29;20377;-73
2023/11/10 06:19:08;;;;;;;6.50;2.15;;;12.80;72.00;;;;;;6120624;29;20044;-73
2023/11/10 06:22:14;;;;;;;4.38;2.17;;;12.90;71.90;;;;;;6120398;29;20445;-74
2023/11/10 06:25:17;;;;;;;3.40;2.08;;;12.90;71.90;;;;;;6120456;29;20107;-74
2023/11/10 06:28:21;;;;;;;3.38;2.05;;;12.90;71.90;;;;;;6120764;29;20498;-73
2023/11/10 06:31:24;;;;;;;3.55;2.03;;;12.90;72.10;;;;;;6120556;29;20099;-74
2023/11/10 06:34:27;;;;;;;6.53;2.50;;;12.80;72.20;;;;;;6124537;29;20109;-72
2023/11/10 06:37:29;;;;;;;3.00;2.00;;;12.90;72.40;;;;;;6124291;29;20472;-74
2023/11/10 06:40:31;;;;;;;3.05;2.00;;;12.90;73.30;;;;;;6105350;29;20052;-73
2023/11/10 06:43:33;;;;;;;3.47;2.08;;;12.90;72.40;;;;;;6108641;29;20039;-74
2023/11/10 06:46:35;;;;;;;5.53;2.10;;;12.90;72.40;;;;;;6124240;29;20091;-73
2023/11/10 06:49:39;;;;;;;6.80;3.05;;;12.90;72.30;;;;;;6124406;29;20035;-74
2023/11/10 06:52:41;;;;;;;3.67;1.90;;;12.90;72.30;;;;;;6123000;29;20036;-74
2023/11/10 06:55:44;;;;;;;4.85;1.98;;;13.00;72.40;;;;;;6124354;29;20081;-74
2023/11/10 06:58:46;;;;;;;5.22;2.13;;;13.00;72.20;;;;;;6122847;29;20508;-73
2023/11/10 07:01:48;;;;;;;4.28;2.42;;;13.00;72.10;;;;;;6122622;29;20031;-74
2023/11/10 07:04:51;;;;;;;5.38;2.30;;;13.10;72.00;;;;;;6123137;29;20032;-75
2023/11/10 07:07:55;;;;;;;4.25;1.42;;;13.10;72.00;;;;;;6123942;29;20110;-74
2023/11/10 07:11:01;;;;;;;3.08;1.30;;;13.10;71.90;;;;;;6122469;29;20733;-73
2023/11/10 07:14:03;;;;;;;3.88;1.20;;;13.20;71.70;;;;;;6122052;29;20043;-73
2023/11/10 07:17:06;;;;;;;2.70;1.38;;;13.20;71.60;;;;;;6123314;29;20031;-74
2023/11/10 07:20:10;;;;;;;7.28;1.70;;;13.30;71.50;;;;;;6121877;29;20031;-74
2023/11/10 07:23:13;;;;;;;4.57;2.10;;;13.40;71.40;;;;;;6121647;29;20116;-73
2023/11/10 07:26:17;;;;;;;8.40;1.63;;;13.40;71.30;;;;;;6121895;29;20549;-74
2023/11/10 07:29:19;;;;;;;2.20;1.33;;;13.50;71.10;;;;;;6122158;29;20035;-73
2023/11/10 07:32:24;;;;;;;2.13;1.27;;;13.50;71.00;;;;;;6122871;29;20099;-73
2023/11/10 07:35:28;;;;;;;0.93;0.75;;;13.60;70.70;;;;;;6121971;29;20329;-73
2023/11/10 07:38:30;;;;;;;1.83;1.08;;;13.60;70.50;;;;;;6123006;29;20032;-73
2023/11/10 07:41:34;;;;;;;2.00;1.20;;;13.60;70.40;;;;;;6122617;29;20257;-73
2023/11/10 07:44:37;;;;;;;1.83;1.00;;;13.70;70.20;;;;;;6121768;29;20024;-73
2023/11/10 07:47:39;;;;;;;3.13;1.30;;;13.70;70.00;;;;;;6123177;29;20041;-72
2023/11/10 07:50:44;;;;;;;2.95;1.30;;;13.70;69.90;;;;;;6105158;29;20051;-72
2023/11/10 07:53:46;;;;;;;1.98;1.17;;;13.70;69.90;;;;;;6105392;29;20544;-73
2023/11/10 07:56:50;;;;;;;1.75;1.10;;;13.70;69.80;;;;;;6105342;29;20051;-73
2023/11/10 07:59:54;;;;;;;4.05;1.45;;;13.80;69.70;;;;;;6122107;29;20036;-73
2023/11/10 08:02:56;;;;;;;3.25;1.42;;;13.80;69.60;;;;;;6105445;29;20035;-73
2023/11/10 08:05:58;;;;;;;3.63;1.55;;;13.90;69.40;;;;;;6105058;29;20040;-74
2023/11/10 08:09:01;;;;;;;2.30;1.08;;;13.90;69.30;;;;;;6105293;29;20043;-74
2023/11/10 08:12:02;;;;;;;2.65;1.60;;;13.90;69.20;;;;;;6121891;29;20059;-72
2023/11/10 08:15:07;;;;;;;2.58;1.50;;;13.90;69.20;;;;;;6105357;29;20031;-73
2023/11/10 08:18:11;;;;;;;2.53;1.15;;;14.00;69.10;;;;;;6122016;29;20051;-74
2023/11/10 08:21:22;;;;;;;1.50;1.05;;;14.10;69.00;;;;;;6121568;29;20514;-74
2023/11/10 08:24:30;;;;;;;5.07;1.42;;;14.20;68.70;;;;;;6104726;29;20129;-73
2023/11/10 08:27:34;;;;;;;5.93;1.75;;;14.30;68.30;;;;;;6121896;29;20040;-75
2023/11/10 08:30:35;;;;;;;5.72;1.60;;;14.30;68.20;;;;;;6104642;29;20074;-74
2023/11/10 08:33:38;;;;;;;7.35;1.70;;;14.40;68.20;;;;;;6121528;29;20039;-74
2023/11/10 08:36:40;;;;;;;3.65;1.63;;;14.50;67.90;;;;;;6121120;29;20036;-73
2023/11/10 08:39:42;;;;;;;2.42;1.27;;;14.60;67.60;;;;;;6103767;29;20035;-73
2023/11/10 08:42:47;;;;;;;6.97;2.05;;;14.60;67.30;;;;;;6104182;29;20655;-74
2023/11/10 08:45:49;;;;;;;5.53;2.08;;;14.60;67.30;;;;;;6104612;29;20356;-73
2023/11/10 08:48:50;;;;;;;7.70;2.03;;;14.70;67.30;;;;;;6104507;29;20441;-75
2023/11/10 08:51:53;;;;;;;2.35;1.40;;;14.60;67.00;;;;;;6103972;29;20154;-73
2023/11/10 08:54:59;;;;;;;5.13;1.75;;;14.60;67.00;;;;;;6119849;29;20031;-73
2023/11/10 08:58:00;;;;;;;4.45;1.55;;;14.60;67.10;;;;;;6121338;29;20042;-74
2023/11/10 09:01:05;;;;;;;4.18;1.77;;;14.60;67.10;;;;;;6121544;29;20145;-74
2023/11/10 09:04:09;;;;;;;1.45;1.33;;;14.60;67.10;;;;;;6121245;29;20036;-73
2023/11/10 09:07:10;;;;;;;5.88;1.63;;;14.60;67.10;;;;;;6120582;29;20028;-74
2023/11/10 09:10:18;;;;;;;6.90;2.10;;;14.60;67.20;;;;;;6120311;29;20360;-73
2023/11/10 09:13:25;;;;;;;3.28;1.92;;;14.60;67.30;;;;;;6103882;29;20071;-72
2023/11/10 09:16:28;;;;;;;2.80;1.45;;;14.60;67.10;;;;;;6119060;29;20035;-74
2023/11/10 09:19:31;;;;;;;2.35;1.45;;;14.60;67.20;;;;;;6120667;29;20201;-73
2023/11/10 09:22:35;;;;;;;3.03;1.67;;;14.60;67.10;;;;;;6121740;29;20019;-72
2023/11/10 09:25:38;;;;;;;6.57;1.80;;;14.70;67.00;;;;;;6121316;29;20042;-73
2023/11/10 09:28:40;;;;;;;11.38;2.47;;;14.80;67.10;;;;;;6120494;29;20057;-74
2023/11/10 09:31:44;;;;;;;4.13;1.50;;;15.00;67.20;;;;;;6120780;29;20043;-72
2023/11/10 09:34:46;;;;;;;4.07;2.17;;;15.10;67.00;;;;;;6120329;29;20054;-73
2023/11/10 09:37:48;;;;;;;6.28;2.35;;;15.30;66.40;;;;;;6120304;29;20061;-74
2023/11/10 09:40:55;;;;;;;4.43;1.60;;;15.40;65.90;;;;;;6120045;29;20039;-74
2023/11/10 09:43:58;;;;;;;1.70;1.30;;;15.50;65.40;;;;;;6104313;29;20103;-73
2023/11/10 09:47:01;;;;;;;3.38;1.80;;;15.50;65.20;;;;;;6125697;29;20040;-74
2023/11/10 09:50:06;;;;;;;2.75;1.65;;;15.70;65.10;;;;;;6104161;29;20396;-73
2023/11/10 09:53:20;;;;;;;4.00;1.23;;;15.70;64.90;;;;;;6118277;29;20103;-72
2023/11/10 09:56:24;;;;;;;4.70;1.92;;;15.80;64.60;;;;;;6120706;29;20023;-74
2023/11/10 09:59:31;;;;;;;2.97;1.38;;;15.90;64.50;;;;;;6104193;29;20130;-75
2023/11/10 10:02:34;;;;;;;8.02;1.48;;;16.00;64.30;;;;;;6120111;29;20054;-75
2023/11/10 10:05:38;;;;;;;2.47;0.90;;;16.10;64.20;;;;;;6119928;29;20039;-74
2023/11/10 10:08:42;;;;;;;3.63;1.45;;;16.30;62.90;;;;;;6123404;29;20436;-73
2023/11/10 10:11:45;;;;;;;2.15;1.23;;;16.50;62.10;;;;;;6091184;29;20047;-75
2023/11/10 10:14:58;;;;;;;2.92;1.50;;;16.70;61.10;;;;;;6107885;29;20400;-73
2023/11/10 10:18:16;;;;;;;4.20;1.65;;;16.70;60.20;;;;;;6092557;29;20364;-74
2023/11/10 10:21:21;;;;;;;3.28;1.40;;;16.80;60.20;;;;;;6107611;29;20111;-74
2023/11/10 10:24:26;;;;;;;2.63;1.00;;;16.90;60.30;;;;;;6107205;29;20047;-75
2023/11/10 10:27:28;;;;;;;1.85;0.82;;;17.10;59.80;;;;;;6107222;29;20040;-74
2023/11/10 10:30:32;;;;;;;1.75;1.00;;;17.40;59.30;;;;;;6123541;29;20032;-74
2023/11/10 10:33:34;;;;;;;1.83;1.10;;;17.80;58.70;;;;;;6106827;29;20130;-73
2023/11/10 10:36:38;;;;;;;3.40;1.58;;;18.00;57.40;;;;;;6090936;29;20635;-74
2023/11/10 10:39:52;;;;;;;4.15;1.08;;;18.20;56.50;;;;;;6123546;29;20550;-73
2023/11/10 10:42:54;;;;;;;2.85;1.38;;;18.10;56.10;;;;;;6121538;29;20461;-73
2023/11/10 10:46:01;;;;;;;4.63;1.48;;;18.20;56.10;;;;;;6123788;29;20074;-75
2023/11/10 10:49:03;;;;;;;2.85;1.13;;;18.70;55.50;;;;;;6091083;29;20539;-73
2023/11/10 10:52:07;;;;;;;9.73;1.20;;;19.10;54.30;;;;;;6121779;29;20086;-73
2023/11/10 10:55:40;;;;;;;3.13;0.55;;;19.70;53.00;;;;;;6121821;29;20043;-74
2023/11/10 10:58:44;;;;;;;0.63;0.63;;;20.10;50.80;;;;;;6123221;29;20413;-74
2023/11/10 11:01:49;;;;;;;1.52;0.50;;;20.40;49.60;;;;;;6122355;29;20040;-73
2023/11/10 11:04:54;;;;;;;1.50;0.30;;;21.10;48.20;;;;;;6123832;29;20544;-74
2023/11/10 11:08:42;;;;;;;1.20;0.95;;;21.80;44.90;;;;;;6122437;29;20095;-74
2023/11/10 11:12:08;;;;;;;1.88;1.10;;;21.90;43.10;;;;;;6123089;29;20070;-74
2023/11/10 11:15:31;;;;;;;0.40;0.28;;;21.90;41.80;;;;;;6122005;29;20059;-73
2023/11/10 11:19:03;;;;;;;5.65;0.70;;;21.70;41.80;;;;;;6122270;29;20038;-74
2023/11/10 11:22:07;;;;;;;1.08;0.50;;;21.40;42.00;;;;;;6080704;29;20088;-73
2023/11/10 11:25:23;;;;;;;0.25;0.22;;;21.10;42.40;;;;;;6065846;29;20051;-75
2023/11/10 11:28:34;;;;;;;0.88;0.77;;;20.80;42.30;;;;;;6097013;29;20377;-74
2023/11/10 11:31:50;;;;;;;0.20;0.20;;;20.30;42.20;;;;;;6080689;29;20147;-73
2023/11/10 11:34:52;;;;;;;0.35;0.32;;;20.10;42.90;;;;;;6080946;29;20088;-74
2023/11/10 11:38:01;;;;;;;1.20;0.50;;;19.90;43.40;;;;;;6096604;29;20040;-74
2023/11/10 11:41:06;;;;;;;0.73;0.38;;;19.70;43.50;;;;;;6096295;29;20371;-74
2023/11/10 11:44:10;;;;;;;0.50;0.40;;;19.50;43.10;;;;;;6080808;29;20036;-74
2023/11/10 11:47:12;;;;;;;0.70;0.40;;;19.30;43.20;;;;;;6078300;29;20079;-73
2023/11/10 11:50:15;;;;;;;0.57;0.38;;;18.90;42.80;;;;;;6072648;29;20142;-73
2023/11/10 11:53:26;;;;;;;1.35;0.75;;;18.60;43.20;;;;;;6090769;29;20126;-74
2023/11/10 11:56:29;;;;;;;2.00;0.65;;;18.30;43.10;;;;;;6105684;29;20039;-71
2023/11/10 11:59:31;;;;;;;0.85;0.40;;;18.00;43.60;;;;;;6123545;29;20035;-74
2023/11/10 12:02:37;;;;;;;3.00;0.80;;;17.80;43.90;;;;;;6123014;29;20172;-74
2023/11/10 12:05:47;;;;;;;2.42;0.70;;;17.60;44.40;;;;;;6106474;29;20107;-75
2023/11/10 12:08:50;;;;;;;2.28;1.08;;;17.40;44.80;;;;;;6105822;29;20050;-74
2023/11/10 12:11:54;;;;;;;1.60;0.60;;;17.30;44.90;;;;;;6122096;29;20122;-73
2023/11/10 12:14:57;;;;;;;1.17;0.55;;;17.30;45.40;;;;;;6090229;29;20047;-74
2023/11/10 12:18:00;;;;;;;1.67;1.00;;;17.30;45.70;;;;;;6105409;29;20039;-73
2023/11/10 12:21:06;;;;;;;0.88;0.32;;;17.20;45.80;;;;;;6105389;29;20055;-74
2023/11/10 12:24:10;;;;;;;2.05;0.70;;;17.20;46.00;;;;;;6122802;29;20032;-73
2023/11/10 12:27:12;;;;;;;5.72;0.60;;;17.20;46.30;;;;;;6105136;29;20031;-74
2023/11/10 12:30:16;;;;;;;1.27;0.70;;;17.20;46.20;;;;;;6104006;29;20476;-74
2023/11/10 12:33:18;;;;;;;1.75;0.68;;;17.30;46.60;;;;;;6104791;29;20063;-74
2023/11/10 12:36:22;;;;;;;2.78;0.55;;;17.30;47.10;;;;;;6121347;29;20058;-74
2023/11/10 12:39:25;;;;;;;0.30;0.30;;;17.50;47.20;;;;;;6082359;29;20033;-75
2023/11/10 12:42:27;;;;;;;0.85;0.40;;;17.60;46.90;;;;;;6081927;29;20043;-74
2023/11/10 12:45:29;;;;;;;0.60;0.55;;;17.70;46.60;;;;;;6098243;29;20028;-74
2023/11/10 12:48:35;;;;;;;1.00;0.70;;;17.70;46.60;;;;;;6098094;29;20032;-74
2023/11/10 12:51:40;;;;;;;0.28;0.28;;;17.70;46.70;;;;;;6096724;29;20649;-74
2023/11/10 12:54:43;;;;;;;1.40;0.60;;;17.60;47.00;;;;;;6098233;29;20441;-73
2023/11/10 12:57:50;;;;;;;0.82;0.40;;;17.50;47.60;;;;;;6097663;29;20031;-74
2023/11/10 13:00:54;;;;;;;0.47;0.30;;;17.20;48.40;;;;;;6097713;29;20034;-73
2023/11/10 13:03:58;;;;;;;0.52;0.52;;;17.00;49.10;;;;;;6097718;29;20099;-75
2023/11/10 13:07:01;;;;;;;4.07;0.90;;;16.80;49.80;;;;;;6096308;29;20039;-74
2023/11/10 13:10:10;;;;;;;3.58;0.93;;;16.50;50.30;;;;;;6097537;29;20044;-74
2023/11/10 13:13:14;;;;;;;8.32;2.10;;;16.30;50.80;;;;;;6067167;29;20087;-74
2023/11/10 13:16:19;;;;;;;6.15;2.05;;;16.20;51.10;;;;;;6097376;29;20028;-76
2023/11/10 13:19:22;;;;;;;2.78;0.70;;;16.00;51.40;;;;;;6096308;29;20123;-74
2023/11/10 13:22:26;;;;;;;2.78;0.90;;;15.90;51.70;;;;;;6111903;29;20145;-74
2023/11/10 13:25:28;;;;;;;0.82;0.52;;;15.90;51.80;;;;;;6095916;29;20040;-74
2023/11/10 13:28:31;;;;;;;2.42;1.10;;;15.90;52.00;;;;;;6096964;29;20043;-74
2023/11/10 13:31:36;;;;;;;5.22;1.05;;;15.90;52.20;;;;;;6096861;29;20373;-74
2023/11/10 13:34:45;;;;;;;3.97;1.35;;;15.80;52.30;;;;;;6096937;29;20078;-74
2023/11/10 13:37:46;;;;;;;4.15;1.00;;;15.90;52.40;;;;;;6095524;29;20032;-73
2023/11/10 13:40:46;;;;;;;1.67;0.75;;;15.90;52.40;;;;;;6096349;29;20043;-73
2023/11/10 13:43:47;;;;;;;0.82;0.68;;;15.90;52.40;;;;;;6099878;29;20114;-73
2023/11/10 13:46:49;;;;;;;2.83;0.50;;;15.90;52.40;;;;;;6101435;29;20046;-75
2023/11/10 13:49:53;;;;;;;2.17;1.17;;;15.90;52.30;;;;;;6101499;29;20028;-74
2023/11/10 13:52:57;;;;;;;2.03;0.43;;;15.80;52.30;;;;;;6085160;29;20698;-73
2023/11/10 13:56:01;;;;;;;4.07;1.85;;;15.80;52.50;;;;;;6101725;29;20043;-74
2023/11/10 13:59:06;;;;;;;3.08;1.50;;;15.80;52.70;;;;;;6102212;29;20036;-74
2023/11/10 14:02:08;;;;;;;1.05;0.60;;;15.80;52.80;;;;;;6084927;29;20054;-73
2023/11/10 14:05:13;;;;;;;0.98;0.60;;;15.70;52.90;;;;;;6086382;29;20796;-74
2023/11/10 14:08:15;;;;;;;0.30;0.30;;;15.60;53.10;;;;;;6104769;29;20051;-73
2023/11/10 14:11:18;;;;;;;1.63;0.50;;;15.80;53.50;;;;;;6119057;29;20438;-73
2023/11/10 14:14:21;;;;;;;1.42;0.68;;;15.60;53.50;;;;;;6115890;29;20035;-74
2023/11/10 14:17:27;;;;;;;4.88;0.50;;;15.60;53.70;;;;;;6106942;29;20080;-74
2023/11/10 14:20:31;;;;;;;4.85;1.17;;;15.50;53.70;;;;;;6102410;29;20055;-74
2023/11/10 14:23:34;;;;;;;0.38;0.25;;;15.60;53.70;;;;;;6103335;29;20339;-75
2023/11/10 14:26:38;;;;;;;0.73;0.40;;;15.60;53.50;;;;;;6104159;29;20120;-73
2023/11/10 14:29:41;;;;;;;1.98;0.32;;;15.60;53.30;;;;;;6102683;29;20561;-73
2023/11/10 14:32:44;;;;;;;3.03;0.60;;;15.50;53.00;;;;;;6085839;29;20144;-74
2023/11/10 14:35:51;;;;;;;0.57;0.30;;;15.60;52.70;;;;;;6101952;29;20107;-74
2023/11/10 14:38:55;;;;;;;1.08;0.47;;;15.60;52.50;;;;;;6100673;29;20470;-75
2023/11/10 14:41:59;;;;;;;1.38;0.93;;;15.60;52.40;;;;;;6100658;29;20050;-75
2023/11/10 14:45:07;;;;;;;0.70;0.63;;;15.60;52.50;;;;;;6101007;29;20711;-74
2023/11/10 14:48:13;;;;;;;1.60;0.57;;;15.60;52.60;;;;;;6100814;29;20361;-73
2023/11/10 14:51:21;;;;;;;3.10;0.57;;;15.70;52.60;;;;;;6099569;29;20136;-73
2023/11/10 14:54:25;;;;;;;1.05;0.70;;;15.70;52.50;;;;;;6099306;29;20108;-74
2023/11/10 14:57:26;;;;;;;1.98;0.50;;;15.60;52.60;;;;;;6100954;29;20398;-74
2023/11/10 15:00:29;;;;;;;0.65;0.50;;;15.70;52.70;;;;;;6100465;29;20028;-74
2023/11/10 15:03:30;;;;;;;0.77;0.52;;;15.70;52.70;;;;;;6100520;29;20123;-73
2023/11/10 15:06:32;;;;;;;4.13;1.90;;;15.70;52.60;;;;;;6099333;29;20099;-74
2023/11/10 15:09:35;;;;;;;10.68;2.85;;;15.70;52.70;;;;;;6099046;29;20115;-74
2023/11/10 15:12:39;;;;;;;6.05;2.08;;;15.60;53.40;;;;;;6100228;29;20047;-74
2023/11/10 15:15:46;;;;;;;1.67;1.25;;;15.50;52.80;;;;;;6114522;29;20036;-74
2023/11/10 15:18:50;;;;;;;1.67;0.82;;;15.50;53.00;;;;;;6100445;29;20119;-74
2023/11/10 15:21:53;;;;;;;6.68;0.65;;;15.40;53.00;;;;;;6100416;29;20091;-74
2023/11/10 15:24:55;;;;;;;2.08;0.90;;;15.40;53.10;;;;;;6098742;29;20115;-74
2023/11/10 15:27:57;;;;;;;4.10;0.70;;;15.30;53.10;;;;;;6100266;29;20152;-74
2023/11/10 15:31:06;;;;;;;1.17;0.95;;;15.30;52.90;;;;;;6098384;29;20508;-74
2023/11/10 15:34:10;;;;;;;3.70;1.33;;;15.20;52.80;;;;;;6100867;29;20052;-73
2023/11/10 15:37:13;;;;;;;2.88;1.50;;;15.10;52.70;;;;;;6100815;29;20038;-74
2023/11/10 15:40:15;;;;;;;2.03;0.85;;;15.00;52.90;;;;;;6100046;29;20036;-75
2023/11/10 15:43:18;;;;;;;2.58;0.60;;;15.00;53.00;;;;;;6098873;29;20430;-73
2023/11/10 15:46:24;;;;;;;1.25;0.80;;;14.90;53.20;;;;;;6099351;29;20118;-73
2023/11/10 15:49:27;;;;;;;0.68;0.38;;;14.80;53.40;;;;;;6099360;29;20111;-74
2023/11/10 15:52:35;;;;;;;1.95;0.88;;;14.70;53.60;;;;;;6099768;29;20035;-74
2023/11/10 15:55:38;;;;;;;0.83;0.70;;;14.60;53.80;;;;;;6067012;29;20044;-73
2023/11/10 15:58:40;;;;;;;2.22;0.75;;;14.60;54.00;;;;;;6099386;29;20123;-73